sensor_id;sensor_type;location;lat;lon;timestamp;P1;durP1;ratioP1;P2;durP2;ratioP2
35990;SDS011;22064;42.672;23.282;2023-03-17T00:01:10;27.02;;;12.48;;
35990;SDS011;22064;42.672;23.282;2023-03-17T00:03:41;25.20;;;11.60;;
35990;SDS011;22064;42.672;23.282;2023-03-17T00:06:13;23.70;;;10.60;;
35990;SDS011;22064;42.672;23.282;2023-03-17T00:08:42;26.60;;;12.20;;
35990;SDS011;22064;42.672;23.282;2023-03-17T00:11:11;26.50;;;12.55;;
35990;SDS011;22064;42.672;23.282;2023-03-17T00:13:38;26.40;;;11.75;;
35990;SDS011;22064;42.672;23.282;2023-03-17T00:16:05;24.85;;;11.65;;
35990;SDS011;22064;42.672;23.282;2023-03-17T00:18:37;24.67;;;11.95;;
35990;SDS011;22064;42.672;23.282;2023-03-17T00:21:03;27.23;;;12.38;;
35990;SDS011;22064;42.672;23.282;2023-03-17T00:23:30;22.95;;;11.15;;
35990;SDS011;22064;42.672;23.282;2023-03-17T00:25:56;25.73;;;11.52;;
35990;SDS011;22064;42.672;23.282;2023-03-17T00:28:22;25.63;;;12.18;;
35990;SDS011;22064;42.672;23.282;2023-03-17T00:30:53;26.38;;;11.90;;
35990;SDS011;22064;42.672;23.282;2023-03-17T00:33:22;25.67;;;11.55;;
35990;SDS011;22064;42.672;23.282;2023-03-17T00:35:51;28.63;;;13.23;;
35990;SDS011;22064;42.672;23.282;2023-03-17T00:38:17;24.95;;;11.82;;
35990;SDS011;22064;42.672;23.282;2023-03-17T00:40:44;24.85;;;11.75;;
35990;SDS011;22064;42.672;23.282;2023-03-17T00:43:11;25.73;;;12.05;;
35990;SDS011;22064;42.672;23.282;2023-03-17T00:45:41;27.60;;;12.07;;
35990;SDS011;22064;42.672;23.282;2023-03-17T00:48:12;26.85;;;12.25;;
35990;SDS011;22064;42.672;23.282;2023-03-17T00:50:43;26.08;;;11.70;;
35990;SDS011;22064;42.672;23.282;2023-03-17T00:53:11;25.45;;;11.88;;
35990;SDS011;22064;42.672;23.282;2023-03-17T00:55:38;24.65;;;10.18;;
35990;SDS011;22064;42.672;23.282;2023-03-17T01:00:37;23.58;;;10.52;;
35990;SDS011;22064;42.672;23.282;2023-03-17T01:03:03;24.85;;;11.50;;
35990;SDS011;22064;42.672;23.282;2023-03-17T01:05:28;24.83;;;10.88;;
35990;SDS011;22064;42.672;23.282;2023-03-17T01:07:55;22.73;;;10.88;;
35990;SDS011;22064;42.672;23.282;2023-03-17T01:10:24;22.55;;;9.35;;
35990;SDS011;22064;42.672;23.282;2023-03-17T01:12:51;22.75;;;10.43;;
35990;SDS011;22064;42.672;23.282;2023-03-17T01:15:19;21.15;;;10.45;;
35990;SDS011;22064;42.672;23.282;2023-03-17T01:17:46;23.85;;;10.27;;
35990;SDS011;22064;42.672;23.282;2023-03-17T01:20:19;22.83;;;9.93;;
35990;SDS011;22064;42.672;23.282;2023-03-17T01:22:47;22.88;;;10.55;;
35990;SDS011;22064;42.672;23.282;2023-03-17T01:25:15;21.83;;;10.13;;
35990;SDS011;22064;42.672;23.282;2023-03-17T01:27:43;23.23;;;10.63;;
35990;SDS011;22064;42.672;23.282;2023-03-17T01:32:45;20.60;;;9.82;;
35990;SDS011;22064;42.672;23.282;2023-03-17T01:35:11;22.33;;;10.27;;
35990;SDS011;22064;42.672;23.282;2023-03-17T01:37:37;22.70;;;9.85;;
35990;SDS011;22064;42.672;23.282;2023-03-17T01:40:05;20.75;;;9.23;;
35990;SDS011;22064;42.672;23.282;2023-03-17T01:42:34;23.88;;;9.68;;
35990;SDS011;22064;42.672;23.282;2023-03-17T01:45:02;20.58;;;9.85;;
35990;SDS011;22064;42.672;23.282;2023-03-17T01:47:30;18.92;;;8.50;;
35990;SDS011;22064;42.672;23.282;2023-03-17T01:50:02;20.20;;;9.30;;
35990;SDS011;22064;42.672;23.282;2023-03-17T01:52:33;20.15;;;8.88;;
35990;SDS011;22064;42.672;23.282;2023-03-17T01:55:05;19.70;;;9.23;;
35990;SDS011;22064;42.672;23.282;2023-03-17T01:57:37;19.52;;;8.88;;
35990;SDS011;22064;42.672;23.282;2023-03-17T02:00:08;19.13;;;8.95;;
35990;SDS011;22064;42.672;23.282;2023-03-17T02:02:43;19.70;;;9.00;;
35990;SDS011;22064;42.672;23.282;2023-03-17T02:05:13;19.63;;;8.85;;
35990;SDS011;22064;42.672;23.282;2023-03-17T02:07:42;19.92;;;8.68;;
35990;SDS011;22064;42.672;23.282;2023-03-17T02:10:09;18.10;;;8.60;;
35990;SDS011;22064;42.672;23.282;2023-03-17T02:12:37;18.60;;;8.25;;
35990;SDS011;22064;42.672;23.282;2023-03-17T02:15:07;18.55;;;8.52;;
35990;SDS011;22064;42.672;23.282;2023-03-17T02:17:34;19.48;;;8.32;;
35990;SDS011;22064;42.672;23.282;2023-03-17T02:22:43;18.98;;;9.05;;
35990;SDS011;22064;42.672;23.282;2023-03-17T02:25:13;20.60;;;9.13;;
35990;SDS011;22064;42.672;23.282;2023-03-17T02:27:41;18.55;;;8.35;;
35990;SDS011;22064;42.672;23.282;2023-03-17T02:30:11;19.83;;;8.85;;
35990;SDS011;22064;42.672;23.282;2023-03-17T02:32:42;18.48;;;8.50;;
35990;SDS011;22064;42.672;23.282;2023-03-17T02:35:08;16.55;;;8.05;;
35990;SDS011;22064;42.672;23.282;2023-03-17T02:37:36;18.27;;;8.27;;
35990;SDS011;22064;42.672;23.282;2023-03-17T02:40:03;19.10;;;8.52;;
35990;SDS011;22064;42.672;23.282;2023-03-17T02:42:30;20.02;;;8.85;;
35990;SDS011;22064;42.672;23.282;2023-03-17T02:44:57;19.38;;;8.52;;
35990;SDS011;22064;42.672;23.282;2023-03-17T02:47:23;19.77;;;8.80;;
35990;SDS011;22064;42.672;23.282;2023-03-17T02:49:49;20.27;;;8.95;;
35990;SDS011;22064;42.672;23.282;2023-03-17T02:52:16;20.00;;;8.60;;
35990;SDS011;22064;42.672;23.282;2023-03-17T02:54:41;18.63;;;9.18;;
35990;SDS011;22064;42.672;23.282;2023-03-17T02:57:07;17.98;;;8.27;;
35990;SDS011;22064;42.672;23.282;2023-03-17T02:59:34;18.48;;;8.73;;
35990;SDS011;22064;42.672;23.282;2023-03-17T03:02:01;22.60;;;9.15;;
35990;SDS011;22064;42.672;23.282;2023-03-17T03:04:27;19.40;;;8.80;;
35990;SDS011;22064;42.672;23.282;2023-03-17T03:06:53;19.83;;;9.02;;
35990;SDS011;22064;42.672;23.282;2023-03-17T03:09:19;19.15;;;8.30;;
35990;SDS011;22064;42.672;23.282;2023-03-17T03:11:45;19.30;;;8.07;;
35990;SDS011;22064;42.672;23.282;2023-03-17T03:14:12;18.17;;;8.68;;
35990;SDS011;22064;42.672;23.282;2023-03-17T03:16:38;21.10;;;9.27;;
35990;SDS011;22064;42.672;23.282;2023-03-17T03:19:04;22.35;;;9.63;;
35990;SDS011;22064;42.672;23.282;2023-03-17T03:21:30;18.88;;;8.55;;
35990;SDS011;22064;42.672;23.282;2023-03-17T03:23:56;19.10;;;8.95;;
35990;SDS011;22064;42.672;23.282;2023-03-17T03:26:22;17.33;;;8.68;;
35990;SDS011;22064;42.672;23.282;2023-03-17T03:28:48;20.77;;;8.88;;
35990;SDS011;22064;42.672;23.282;2023-03-17T03:31:14;19.23;;;8.90;;
35990;SDS011;22064;42.672;23.282;2023-03-17T03:33:41;20.20;;;9.35;;
35990;SDS011;22064;42.672;23.282;2023-03-17T03:36:08;22.10;;;9.60;;
35990;SDS011;22064;42.672;23.282;2023-03-17T03:38:34;18.65;;;8.40;;
35990;SDS011;22064;42.672;23.282;2023-03-17T03:41:00;17.40;;;8.10;;
35990;SDS011;22064;42.672;23.282;2023-03-17T03:43:26;18.83;;;8.57;;
35990;SDS011;22064;42.672;23.282;2023-03-17T03:45:52;19.38;;;8.73;;
35990;SDS011;22064;42.672;23.282;2023-03-17T03:48:21;21.27;;;10.15;;
35990;SDS011;22064;42.672;23.282;2023-03-17T03:50:48;19.23;;;8.52;;
35990;SDS011;22064;42.672;23.282;2023-03-17T03:53:13;20.42;;;9.27;;
35990;SDS011;22064;42.672;23.282;2023-03-17T03:55:40;19.10;;;9.10;;
35990;SDS011;22064;42.672;23.282;2023-03-17T03:58:06;17.13;;;8.88;;
35990;SDS011;22064;42.672;23.282;2023-03-17T04:00:33;17.52;;;8.63;;
35990;SDS011;22064;42.672;23.282;2023-03-17T04:02:59;16.98;;;7.80;;
35990;SDS011;22064;42.672;23.282;2023-03-17T04:05:25;16.55;;;8.02;;
35990;SDS011;22064;42.672;23.282;2023-03-17T04:07:51;17.88;;;8.05;;
35990;SDS011;22064;42.672;23.282;2023-03-17T04:10:18;16.83;;;7.63;;
35990;SDS011;22064;42.672;23.282;2023-03-17T04:12:44;15.98;;;8.02;;
35990;SDS011;22064;42.672;23.282;2023-03-17T04:15:13;15.93;;;7.43;;
35990;SDS011;22064;42.672;23.282;2023-03-17T04:20:07;17.27;;;8.18;;
35990;SDS011;22064;42.672;23.282;2023-03-17T04:22:33;16.98;;;8.07;;
35990;SDS011;22064;42.672;23.282;2023-03-17T04:24:59;15.98;;;7.75;;
35990;SDS011;22064;42.672;23.282;2023-03-17T04:27:25;15.90;;;7.75;;
35990;SDS011;22064;42.672;23.282;2023-03-17T04:29:51;17.42;;;8.32;;
35990;SDS011;22064;42.672;23.282;2023-03-17T04:32:18;17.80;;;7.55;;
35990;SDS011;22064;42.672;23.282;2023-03-17T04:34:44;16.60;;;7.63;;
35990;SDS011;22064;42.672;23.282;2023-03-17T04:37:10;15.75;;;7.60;;
35990;SDS011;22064;42.672;23.282;2023-03-17T04:39:36;15.60;;;7.57;;
35990;SDS011;22064;42.672;23.282;2023-03-17T04:42:03;15.63;;;7.38;;
35990;SDS011;22064;42.672;23.282;2023-03-17T04:44:30;18.83;;;8.43;;
35990;SDS011;22064;42.672;23.282;2023-03-17T04:46:57;15.98;;;7.35;;
35990;SDS011;22064;42.672;23.282;2023-03-17T04:49:23;17.88;;;8.18;;
35990;SDS011;22064;42.672;23.282;2023-03-17T04:51:48;15.77;;;7.47;;
35990;SDS011;22064;42.672;23.282;2023-03-17T04:54:14;17.48;;;7.95;;
35990;SDS011;22064;42.672;23.282;2023-03-17T04:56:40;15.95;;;7.53;;
35990;SDS011;22064;42.672;23.282;2023-03-17T04:59:06;17.85;;;7.85;;
35990;SDS011;22064;42.672;23.282;2023-03-17T05:01:33;15.48;;;7.68;;
35990;SDS011;22064;42.672;23.282;2023-03-17T05:03:59;18.38;;;8.38;;
35990;SDS011;22064;42.672;23.282;2023-03-17T05:06:26;18.20;;;8.23;;
35990;SDS011;22064;42.672;23.282;2023-03-17T05:08:52;16.80;;;7.82;;
35990;SDS011;22064;42.672;23.282;2023-03-17T05:11:18;16.77;;;8.70;;
35990;SDS011;22064;42.672;23.282;2023-03-17T05:13:44;17.85;;;8.27;;
35990;SDS011;22064;42.672;23.282;2023-03-17T05:16:10;18.25;;;8.10;;
35990;SDS011;22064;42.672;23.282;2023-03-17T05:18:36;17.17;;;8.02;;
35990;SDS011;22064;42.672;23.282;2023-03-17T05:21:03;16.63;;;7.97;;
35990;SDS011;22064;42.672;23.282;2023-03-17T05:23:30;19.05;;;8.52;;
35990;SDS011;22064;42.672;23.282;2023-03-17T05:25:56;19.17;;;8.40;;
35990;SDS011;22064;42.672;23.282;2023-03-17T05:28:22;18.13;;;8.18;;
35990;SDS011;22064;42.672;23.282;2023-03-17T05:30:49;14.35;;;7.28;;
35990;SDS011;22064;42.672;23.282;2023-03-17T05:33:16;18.02;;;8.43;;
35990;SDS011;22064;42.672;23.282;2023-03-17T05:35:42;17.13;;;8.40;;
35990;SDS011;22064;42.672;23.282;2023-03-17T05:38:08;19.23;;;8.40;;
35990;SDS011;22064;42.672;23.282;2023-03-17T05:40:36;16.58;;;8.38;;
35990;SDS011;22064;42.672;23.282;2023-03-17T05:43:03;19.65;;;8.30;;
35990;SDS011;22064;42.672;23.282;2023-03-17T05:45:29;17.25;;;8.70;;
35990;SDS011;22064;42.672;23.282;2023-03-17T05:47:56;17.63;;;8.18;;
35990;SDS011;22064;42.672;23.282;2023-03-17T05:50:22;20.98;;;8.27;;
35990;SDS011;22064;42.672;23.282;2023-03-17T05:52:49;17.40;;;8.18;;
35990;SDS011;22064;42.672;23.282;2023-03-17T05:55:17;18.38;;;8.52;;
35990;SDS011;22064;42.672;23.282;2023-03-17T05:57:43;17.67;;;8.40;;
35990;SDS011;22064;42.672;23.282;2023-03-17T06:00:10;16.85;;;8.05;;
35990;SDS011;22064;42.672;23.282;2023-03-17T06:02:37;15.90;;;7.85;;
35990;SDS011;22064;42.672;23.282;2023-03-17T06:05:04;17.98;;;7.93;;
35990;SDS011;22064;42.672;23.282;2023-03-17T06:07:30;16.42;;;8.05;;
35990;SDS011;22064;42.672;23.282;2023-03-17T06:09:57;16.70;;;7.32;;
35990;SDS011;22064;42.672;23.282;2023-03-17T06:12:23;16.27;;;7.97;;
35990;SDS011;22064;42.672;23.282;2023-03-17T06:14:49;18.45;;;7.82;;
35990;SDS011;22064;42.672;23.282;2023-03-17T06:17:14;16.17;;;8.07;;
35990;SDS011;22064;42.672;23.282;2023-03-17T06:19:40;14.93;;;7.22;;
35990;SDS011;22064;42.672;23.282;2023-03-17T06:22:06;15.38;;;7.82;;
35990;SDS011;22064;42.672;23.282;2023-03-17T06:24:33;18.48;;;8.25;;
35990;SDS011;22064;42.672;23.282;2023-03-17T06:26:59;17.90;;;8.10;;
35990;SDS011;22064;42.672;23.282;2023-03-17T06:29:26;16.45;;;8.20;;
35990;SDS011;22064;42.672;23.282;2023-03-17T06:31:52;18.02;;;9.13;;
35990;SDS011;22064;42.672;23.282;2023-03-17T06:34:19;16.70;;;7.90;;
35990;SDS011;22064;42.672;23.282;2023-03-17T06:36:46;14.02;;;7.60;;
35990;SDS011;22064;42.672;23.282;2023-03-17T06:39:13;15.38;;;7.50;;
35990;SDS011;22064;42.672;23.282;2023-03-17T06:41:40;15.93;;;7.65;;
35990;SDS011;22064;42.672;23.282;2023-03-17T06:44:07;16.73;;;8.45;;
35990;SDS011;22064;42.672;23.282;2023-03-17T06:46:33;16.42;;;7.60;;
35990;SDS011;22064;42.672;23.282;2023-03-17T06:49:00;14.35;;;7.07;;
35990;SDS011;22064;42.672;23.282;2023-03-17T06:51:27;14.63;;;6.63;;
35990;SDS011;22064;42.672;23.282;2023-03-17T06:53:54;14.35;;;6.95;;
35990;SDS011;22064;42.672;23.282;2023-03-17T06:56:20;15.68;;;7.18;;
35990;SDS011;22064;42.672;23.282;2023-03-17T06:58:47;12.50;;;6.22;;
35990;SDS011;22064;42.672;23.282;2023-03-17T07:01:12;12.93;;;6.60;;
35990;SDS011;22064;42.672;23.282;2023-03-17T07:03:40;13.57;;;6.38;;
35990;SDS011;22064;42.672;23.282;2023-03-17T07:06:06;12.80;;;6.07;;
35990;SDS011;22064;42.672;23.282;2023-03-17T07:08:33;13.65;;;6.32;;
35990;SDS011;22064;42.672;23.282;2023-03-17T07:10:59;14.20;;;6.70;;
35990;SDS011;22064;42.672;23.282;2023-03-17T07:13:26;14.10;;;5.65;;
35990;SDS011;22064;42.672;23.282;2023-03-17T07:15:52;9.38;;;4.80;;
35990;SDS011;22064;42.672;23.282;2023-03-17T07:18:18;12.77;;;5.60;;
35990;SDS011;22064;42.672;23.282;2023-03-17T07:20:44;12.27;;;5.25;;
35990;SDS011;22064;42.672;23.282;2023-03-17T07:23:14;15.20;;;6.32;;
35990;SDS011;22064;42.672;23.282;2023-03-17T07:25:43;14.43;;;5.65;;
35990;SDS011;22064;42.672;23.282;2023-03-17T07:28:11;11.98;;;5.40;;
35990;SDS011;22064;42.672;23.282;2023-03-17T07:30:38;9.32;;;4.95;;
35990;SDS011;22064;42.672;23.282;2023-03-17T07:33:05;11.32;;;5.05;;
35990;SDS011;22064;42.672;23.282;2023-03-17T07:35:30;11.52;;;5.82;;
35990;SDS011;22064;42.672;23.282;2023-03-17T07:37:58;12.75;;;5.93;;
35990;SDS011;22064;42.672;23.282;2023-03-17T07:40:24;10.93;;;5.55;;
35990;SDS011;22064;42.672;23.282;2023-03-17T07:42:51;11.07;;;5.47;;
35990;SDS011;22064;42.672;23.282;2023-03-17T07:45:16;13.60;;;5.80;;
35990;SDS011;22064;42.672;23.282;2023-03-17T07:47:42;11.35;;;5.55;;
35990;SDS011;22064;42.672;23.282;2023-03-17T07:50:08;10.82;;;5.63;;
35990;SDS011;22064;42.672;23.282;2023-03-17T07:52:35;13.82;;;5.20;;
35990;SDS011;22064;42.672;23.282;2023-03-17T07:55:01;9.20;;;4.80;;
35990;SDS011;22064;42.672;23.282;2023-03-17T07:57:27;8.68;;;4.88;;
35990;SDS011;22064;42.672;23.282;2023-03-17T07:59:53;10.48;;;5.55;;
35990;SDS011;22064;42.672;23.282;2023-03-17T08:02:19;11.45;;;5.10;;
35990;SDS011;22064;42.672;23.282;2023-03-17T08:04:45;8.02;;;4.43;;
35990;SDS011;22064;42.672;23.282;2023-03-17T08:07:11;11.85;;;5.68;;
35990;SDS011;22064;42.672;23.282;2023-03-17T08:09:38;9.88;;;5.20;;
35990;SDS011;22064;42.672;23.282;2023-03-17T08:12:05;10.13;;;5.05;;
35990;SDS011;22064;42.672;23.282;2023-03-17T08:14:31;10.50;;;4.78;;
35990;SDS011;22064;42.672;23.282;2023-03-17T08:16:57;10.18;;;4.47;;
35990;SDS011;22064;42.672;23.282;2023-03-17T08:19:23;8.07;;;4.25;;
35990;SDS011;22064;42.672;23.282;2023-03-17T08:21:49;8.88;;;5.00;;
35990;SDS011;22064;42.672;23.282;2023-03-17T08:24:15;11.52;;;5.28;;
35990;SDS011;22064;42.672;23.282;2023-03-17T08:26:41;10.20;;;5.13;;
35990;SDS011;22064;42.672;23.282;2023-03-17T08:29:07;12.10;;;5.65;;
35990;SDS011;22064;42.672;23.282;2023-03-17T08:31:34;11.55;;;5.40;;
35990;SDS011;22064;42.672;23.282;2023-03-17T08:34:00;11.10;;;5.50;;
35990;SDS011;22064;42.672;23.282;2023-03-17T08:36:28;11.38;;;5.90;;
35990;SDS011;22064;42.672;23.282;2023-03-17T08:38:54;10.85;;;5.30;;
35990;SDS011;22064;42.672;23.282;2023-03-17T08:41:21;9.82;;;5.35;;
35990;SDS011;22064;42.672;23.282;2023-03-17T08:43:48;11.35;;;5.28;;
35990;SDS011;22064;42.672;23.282;2023-03-17T08:46:23;11.43;;;5.32;;
35990;SDS011;22064;42.672;23.282;2023-03-17T08:48:52;10.55;;;5.55;;
35990;SDS011;22064;42.672;23.282;2023-03-17T08:51:19;10.10;;;5.20;;
35990;SDS011;22064;42.672;23.282;2023-03-17T08:53:45;10.68;;;5.60;;
35990;SDS011;22064;42.672;23.282;2023-03-17T08:56:11;11.70;;;5.95;;
35990;SDS011;22064;42.672;23.282;2023-03-17T08:58:38;13.45;;;6.18;;
35990;SDS011;22064;42.672;23.282;2023-03-17T09:01:05;12.65;;;6.20;;
35990;SDS011;22064;42.672;23.282;2023-03-17T09:03:31;13.73;;;6.57;;
35990;SDS011;22064;42.672;23.282;2023-03-17T09:05:57;15.25;;;7.70;;
35990;SDS011;22064;42.672;23.282;2023-03-17T09:08:25;15.25;;;7.30;;
35990;SDS011;22064;42.672;23.282;2023-03-17T09:10:52;14.80;;;7.53;;
35990;SDS011;22064;42.672;23.282;2023-03-17T09:13:19;13.90;;;6.72;;
35990;SDS011;22064;42.672;23.282;2023-03-17T09:15:46;16.10;;;7.55;;
35990;SDS011;22064;42.672;23.282;2023-03-17T09:18:12;15.35;;;7.38;;
35990;SDS011;22064;42.672;23.282;2023-03-17T09:20:39;11.50;;;5.90;;
35990;SDS011;22064;42.672;23.282;2023-03-17T09:23:05;16.30;;;6.93;;
35990;SDS011;22064;42.672;23.282;2023-03-17T09:25:36;16.45;;;7.97;;
35990;SDS011;22064;42.672;23.282;2023-03-17T09:28:04;14.35;;;7.15;;
35990;SDS011;22064;42.672;23.282;2023-03-17T09:30:31;12.95;;;7.32;;
35990;SDS011;22064;42.672;23.282;2023-03-17T09:32:58;16.60;;;8.15;;
35990;SDS011;22064;42.672;23.282;2023-03-17T09:35:25;14.88;;;7.20;;
35990;SDS011;22064;42.672;23.282;2023-03-17T09:37:52;14.82;;;7.00;;
35990;SDS011;22064;42.672;23.282;2023-03-17T09:40:19;13.95;;;6.63;;
35990;SDS011;22064;42.672;23.282;2023-03-17T09:45:28;16.13;;;6.78;;
35990;SDS011;22064;42.672;23.282;2023-03-17T09:48:02;13.95;;;6.97;;
35990;SDS011;22064;42.672;23.282;2023-03-17T09:53:42;17.13;;;7.30;;
35990;SDS011;22064;42.672;23.282;2023-03-17T09:56:16;15.00;;;7.03;;
35990;SDS011;22064;42.672;23.282;2023-03-17T09:58:46;16.67;;;8.80;;
35990;SDS011;22064;42.672;23.282;2023-03-17T10:01:19;12.75;;;6.20;;
35990;SDS011;22064;42.672;23.282;2023-03-17T10:03:47;15.43;;;7.05;;
35990;SDS011;22064;42.672;23.282;2023-03-17T10:09:33;17.35;;;6.93;;
35990;SDS011;22064;42.672;23.282;2023-03-17T10:15:17;13.05;;;6.80;;
35990;SDS011;22064;42.672;23.282;2023-03-17T10:17:44;12.98;;;6.32;;
35990;SDS011;22064;42.672;23.282;2023-03-17T10:20:20;16.20;;;7.22;;
35990;SDS011;22064;42.672;23.282;2023-03-17T10:22:53;17.63;;;6.85;;
35990;SDS011;22064;42.672;23.282;2023-03-17T10:25:33;16.40;;;8.15;;
35990;SDS011;22064;42.672;23.282;2023-03-17T10:28:02;14.60;;;6.80;;
35990;SDS011;22064;42.672;23.282;2023-03-17T10:30:31;15.32;;;7.00;;
35990;SDS011;22064;42.672;23.282;2023-03-17T10:32:59;14.20;;;6.88;;
35990;SDS011;22064;42.672;23.282;2023-03-17T10:35:28;13.00;;;6.50;;
35990;SDS011;22064;42.672;23.282;2023-03-17T10:37:54;17.67;;;7.97;;
35990;SDS011;22064;42.672;23.282;2023-03-17T10:40:21;14.52;;;6.80;;
35990;SDS011;22064;42.672;23.282;2023-03-17T10:43:05;17.25;;;8.02;;
35990;SDS011;22064;42.672;23.282;2023-03-17T10:45:34;17.10;;;6.53;;
35990;SDS011;22064;42.672;23.282;2023-03-17T10:48:02;15.82;;;6.97;;
35990;SDS011;22064;42.672;23.282;2023-03-17T10:50:34;13.70;;;7.05;;
35990;SDS011;22064;42.672;23.282;2023-03-17T10:55:32;14.00;;;6.20;;
35990;SDS011;22064;42.672;23.282;2023-03-17T10:58:15;13.35;;;6.80;;
35990;SDS011;22064;42.672;23.282;2023-03-17T11:00:54;14.25;;;6.00;;
35990;SDS011;22064;42.672;23.282;2023-03-17T11:03:25;13.75;;;6.32;;
35990;SDS011;22064;42.672;23.282;2023-03-17T11:05:55;13.95;;;6.45;;
35990;SDS011;22064;42.672;23.282;2023-03-17T11:08:54;16.10;;;6.60;;
35990;SDS011;22064;42.672;23.282;2023-03-17T11:11:24;16.42;;;6.45;;
35990;SDS011;22064;42.672;23.282;2023-03-17T11:14:02;15.53;;;7.40;;
35990;SDS011;22064;42.672;23.282;2023-03-17T11:17:01;14.55;;;7.30;;
35990;SDS011;22064;42.672;23.282;2023-03-17T11:19:40;16.38;;;7.22;;
35990;SDS011;22064;42.672;23.282;2023-03-17T11:22:26;14.55;;;7.10;;
35990;SDS011;22064;42.672;23.282;2023-03-17T11:36:17;13.25;;;6.80;;
35990;SDS011;22064;42.672;23.282;2023-03-17T11:38:57;18.70;;;8.30;;
35990;SDS011;22064;42.672;23.282;2023-03-17T11:41:33;18.35;;;7.97;;
35990;SDS011;22064;42.672;23.282;2023-03-17T11:49:27;9.90;;;4.80;;
35990;SDS011;22064;42.672;23.282;2023-03-17T11:57:40;8.75;;;4.05;;
35990;SDS011;22064;42.672;23.282;2023-03-17T12:02:58;8.27;;;4.35;;
35990;SDS011;22064;42.672;23.282;2023-03-17T12:05:34;7.38;;;3.95;;
35990;SDS011;22064;42.672;23.282;2023-03-17T12:08:02;9.35;;;4.03;;
35990;SDS011;22064;42.672;23.282;2023-03-17T12:13:07;14.40;;;4.07;;
35990;SDS011;22064;42.672;23.282;2023-03-17T12:23:47;7.40;;;3.75;;
35990;SDS011;22064;42.672;23.282;2023-03-17T12:35:40;7.70;;;4.07;;
35990;SDS011;22064;42.672;23.282;2023-03-17T12:38:07;12.88;;;5.00;;
35990;SDS011;22064;42.672;23.282;2023-03-17T12:48:51;20.85;;;7.45;;
35990;SDS011;22064;42.672;23.282;2023-03-17T12:51:45;9.85;;;4.47;;
35990;SDS011;22064;42.672;23.282;2023-03-17T12:54:32;7.82;;;3.65;;
35990;SDS011;22064;42.672;23.282;2023-03-17T12:57:26;7.53;;;3.97;;
35990;SDS011;22064;42.672;23.282;2023-03-17T12:59:59;7.40;;;3.80;;
35990;SDS011;22064;42.672;23.282;2023-03-17T13:02:49;7.50;;;3.53;;
35990;SDS011;22064;42.672;23.282;2023-03-17T13:05:31;10.23;;;5.20;;
35990;SDS011;22064;42.672;23.282;2023-03-17T13:08:02;8.75;;;4.20;;
35990;SDS011;22064;42.672;23.282;2023-03-17T13:10:43;9.63;;;4.47;;
35990;SDS011;22064;42.672;23.282;2023-03-17T13:21:37;4.20;;;2.47;;
35990;SDS011;22064;42.672;23.282;2023-03-17T13:37:43;6.18;;;3.92;;
35990;SDS011;22064;42.672;23.282;2023-03-17T13:45:35;4.60;;;2.30;;
35990;SDS011;22064;42.672;23.282;2023-03-17T13:53:40;2.92;;;2.17;;
35990;SDS011;22064;42.672;23.282;2023-03-17T13:59:10;5.47;;;2.60;;
35990;SDS011;22064;42.672;23.282;2023-03-17T14:01:33;3.53;;;2.40;;
35990;SDS011;22064;42.672;23.282;2023-03-17T14:04:08;4.85;;;2.22;;
35990;SDS011;22064;42.672;23.282;2023-03-17T14:06:41;6.65;;;2.55;;
35990;SDS011;22064;42.672;23.282;2023-03-17T14:09:24;4.22;;;2.40;;
35990;SDS011;22064;42.672;23.282;2023-03-17T14:11:57;4.05;;;2.47;;
35990;SDS011;22064;42.672;23.282;2023-03-17T14:14:44;8.07;;;2.67;;
35990;SDS011;22064;42.672;23.282;2023-03-17T14:17:18;6.60;;;2.97;;
35990;SDS011;22064;42.672;23.282;2023-03-17T14:22:52;4.47;;;2.80;;
35990;SDS011;22064;42.672;23.282;2023-03-17T14:25:25;5.22;;;2.80;;
35990;SDS011;22064;42.672;23.282;2023-03-17T14:27:57;4.90;;;2.53;;
35990;SDS011;22064;42.672;23.282;2023-03-17T14:30:24;5.50;;;2.90;;
35990;SDS011;22064;42.672;23.282;2023-03-17T14:35:28;8.73;;;4.38;;
35990;SDS011;22064;42.672;23.282;2023-03-17T14:38:16;9.23;;;5.05;;
35990;SDS011;22064;42.672;23.282;2023-03-17T14:40:45;7.88;;;3.95;;
35990;SDS011;22064;42.672;23.282;2023-03-17T14:43:11;8.77;;;3.88;;
35990;SDS011;22064;42.672;23.282;2023-03-17T14:45:50;4.30;;;2.63;;
35990;SDS011;22064;42.672;23.282;2023-03-17T14:48:26;5.43;;;2.88;;
35990;SDS011;22064;42.672;23.282;2023-03-17T14:50:56;5.78;;;3.17;;
35990;SDS011;22064;42.672;23.282;2023-03-17T14:53:30;6.43;;;3.00;;
35990;SDS011;22064;42.672;23.282;2023-03-17T14:55:57;8.77;;;2.92;;
35990;SDS011;22064;42.672;23.282;2023-03-17T14:58:25;3.35;;;2.45;;
35990;SDS011;22064;42.672;23.282;2023-03-17T15:04:11;6.22;;;2.83;;
35990;SDS011;22064;42.672;23.282;2023-03-17T15:06:52;4.18;;;2.90;;
35990;SDS011;22064;42.672;23.282;2023-03-17T15:09:33;5.68;;;3.17;;
35990;SDS011;22064;42.672;23.282;2023-03-17T15:12:02;5.30;;;2.83;;
35990;SDS011;22064;42.672;23.282;2023-03-17T15:14:32;7.20;;;3.30;;
35990;SDS011;22064;42.672;23.282;2023-03-17T15:17:01;5.50;;;3.10;;
35990;SDS011;22064;42.672;23.282;2023-03-17T15:19:39;5.67;;;3.00;;
35990;SDS011;22064;42.672;23.282;2023-03-17T15:22:21;6.13;;;3.05;;
35990;SDS011;22064;42.672;23.282;2023-03-17T15:24:57;6.80;;;3.00;;
35990;SDS011;22064;42.672;23.282;2023-03-17T15:27:24;13.18;;;3.58;;
35990;SDS011;22064;42.672;23.282;2023-03-17T15:29:50;8.30;;;3.45;;
35990;SDS011;22064;42.672;23.282;2023-03-17T15:32:17;6.82;;;3.42;;
35990;SDS011;22064;42.672;23.282;2023-03-17T15:34:46;6.22;;;3.40;;
35990;SDS011;22064;42.672;23.282;2023-03-17T15:37:31;5.88;;;3.17;;
35990;SDS011;22064;42.672;23.282;2023-03-17T15:40:00;7.85;;;3.38;;
35990;SDS011;22064;42.672;23.282;2023-03-17T15:42:31;5.65;;;3.58;;
35990;SDS011;22064;42.672;23.282;2023-03-17T15:44:58;6.45;;;3.55;;
35990;SDS011;22064;42.672;23.282;2023-03-17T15:47:27;7.10;;;3.53;;
35990;SDS011;22064;42.672;23.282;2023-03-17T15:49:56;7.00;;;3.58;;
35990;SDS011;22064;42.672;23.282;2023-03-17T15:52:25;7.30;;;3.67;;
35990;SDS011;22064;42.672;23.282;2023-03-17T15:54:55;6.07;;;3.60;;
35990;SDS011;22064;42.672;23.282;2023-03-17T15:57:23;7.72;;;4.00;;
35990;SDS011;22064;42.672;23.282;2023-03-17T15:59:50;8.50;;;3.53;;
35990;SDS011;22064;42.672;23.282;2023-03-17T16:04:59;6.45;;;3.85;;
35990;SDS011;22064;42.672;23.282;2023-03-17T16:07:26;8.07;;;4.15;;
35990;SDS011;22064;42.672;23.282;2023-03-17T16:09:53;8.35;;;4.40;;
35990;SDS011;22064;42.672;23.282;2023-03-17T16:12:19;8.88;;;3.85;;
35990;SDS011;22064;42.672;23.282;2023-03-17T16:14:45;8.43;;;4.38;;
35990;SDS011;22064;42.672;23.282;2023-03-17T16:17:32;8.18;;;4.60;;
35990;SDS011;22064;42.672;23.282;2023-03-17T16:19:57;7.82;;;3.42;;
35990;SDS011;22064;42.672;23.282;2023-03-17T16:22:33;8.27;;;3.67;;
35990;SDS011;22064;42.672;23.282;2023-03-17T16:24:59;6.60;;;3.60;;
35990;SDS011;22064;42.672;23.282;2023-03-17T16:27:26;7.10;;;3.97;;
35990;SDS011;22064;42.672;23.282;2023-03-17T16:29:51;11.45;;;4.70;;
35990;SDS011;22064;42.672;23.282;2023-03-17T16:32:17;11.45;;;5.03;;
35990;SDS011;22064;42.672;23.282;2023-03-17T16:34:43;7.60;;;4.25;;
35990;SDS011;22064;42.672;23.282;2023-03-17T16:37:15;11.90;;;4.65;;
35990;SDS011;22064;42.672;23.282;2023-03-17T16:39:41;13.10;;;5.55;;